sensor_id;sensor_type;location;lat;lon;timestamp;pressure;altitude;pressure_sealevel;temperature;humidity
70254;BME280;57649;42.968;1.608;2024-03-17T00:01:32;97646.19;;;13.38;82.69
70254;BME280;57649;42.968;1.608;2024-03-17T00:03:57;97639.44;;;13.42;83.45
70254;BME280;57649;42.968;1.608;2024-03-17T00:06:24;97637.16;;;13.08;86.29
70254;BME280;57649;42.968;1.608;2024-03-17T00:08:49;97636.81;;;12.80;93.73
70254;BME280;57649;42.968;1.608;2024-03-17T00:11:15;97633.13;;;12.49;98.64
70254;BME280;57649;42.968;1.608;2024-03-17T00:13:41;97630.56;;;12.08;100.00
70254;BME280;57649;42.968;1.608;2024-03-17T00:16:06;97623.38;;;11.84;100.00
70254;BME280;57649;42.968;1.608;2024-03-17T00:18:32;97610.84;;;11.60;100.00
70254;BME280;57649;42.968;1.608;2024-03-17T00:20:57;97623.91;;;11.55;100.00
70254;BME280;57649;42.968;1.608;2024-03-17T00:23:24;97610.84;;;11.52;100.00
70254;BME280;57649;42.968;1.608;2024-03-17T00:25:49;97607.19;;;11.45;100.00
70254;BME280;57649;42.968;1.608;2024-03-17T00:28:16;97598.28;;;11.44;100.00
70254;BME280;57649;42.968;1.608;2024-03-17T00:30:41;97598.28;;;11.44;100.00
70254;BME280;57649;42.968;1.608;2024-03-17T00:33:07;97596.44;;;11.53;100.00
70254;BME280;57649;42.968;1.608;2024-03-17T00:35:33;97597.41;;;11.68;100.00
70254;BME280;57649;42.968;1.608;2024-03-17T00:37:58;97598.09;;;11.62;100.00
70254;BME280;57649;42.968;1.608;2024-03-17T00:40:25;97610.16;;;11.66;100.00
70254;BME280;57649;42.968;1.608;2024-03-17T00:42:50;97600.09;;;11.77;96.61
70254;BME280;57649;42.968;1.608;2024-03-17T00:45:16;97601.94;;;11.76;98.40
70254;BME280;57649;42.968;1.608;2024-03-17T00:47:41;97611.81;;;11.75;99.62
70254;BME280;57649;42.968;1.608;2024-03-17T00:50:07;97612.69;;;11.51;100.00
70254;BME280;57649;42.968;1.608;2024-03-17T00:52:34;97606.50;;;11.26;100.00
70254;BME280;57649;42.968;1.608;2024-03-17T00:54:59;97611.03;;;11.17;100.00
70254;BME280;57649;42.968;1.608;2024-03-17T00:57:25;97613.22;;;11.14;100.00
70254;BME280;57649;42.968;1.608;2024-03-17T00:59:50;97623.56;;;11.17;100.00
70254;BME280;57649;42.968;1.608;2024-03-17T01:02:16;97604.16;;;11.07;100.00
70254;BME280;57649;42.968;1.608;2024-03-17T01:04:42;97597.81;;;11.16;100.00
70254;BME280;57649;42.968;1.608;2024-03-17T01:07:08;97614.22;;;11.21;100.00
70254;BME280;57649;42.968;1.608;2024-03-17T01:09:34;97595.47;;;11.21;100.00
70254;BME280;57649;42.968;1.608;2024-03-17T01:12:00;97599.31;;;11.27;100.00
70254;BME280;57649;42.968;1.608;2024-03-17T01:14:25;97603.50;;;11.21;100.00
70254;BME280;57649;42.968;1.608;2024-03-17T01:16:51;97603.84;;;11.34;100.00
70254;BME280;57649;42.968;1.608;2024-03-17T01:19:16;97610.03;;;11.43;100.00
70254;BME280;57649;42.968;1.608;2024-03-17T01:21:42;97597.16;;;11.30;100.00
70254;BME280;57649;42.968;1.608;2024-03-17T01:24:07;97606.84;;;11.23;100.00
70254;BME280;57649;42.968;1.608;2024-03-17T01:26:33;97582.56;;;11.16;100.00
70254;BME280;57649;42.968;1.608;2024-03-17T01:28:58;97589.75;;;11.24;100.00
70254;BME280;57649;42.968;1.608;2024-03-17T01:31:24;97594.13;;;11.25;100.00
70254;BME280;57649;42.968;1.608;2024-03-17T01:33:50;97599.47;;;11.25;100.00
70254;BME280;57649;42.968;1.608;2024-03-17T01:36:15;97601.84;;;11.12;100.00
70254;BME280;57649;42.968;1.608;2024-03-17T01:38:41;97591.59;;;11.07;100.00
70254;BME280;57649;42.968;1.608;2024-03-17T01:41:06;97597.47;;;11.03;100.00
70254;BME280;57649;42.968;1.608;2024-03-17T01:43:32;97596.44;;;11.04;100.00
70254;BME280;57649;42.968;1.608;2024-03-17T01:45:58;97591.44;;;11.09;100.00
70254;BME280;57649;42.968;1.608;2024-03-17T01:48:25;97591.28;;;11.10;100.00
70254;BME280;57649;42.968;1.608;2024-03-17T01:50:53;97591.63;;;11.15;100.00
70254;BME280;57649;42.968;1.608;2024-03-17T01:53:21;97582.22;;;11.11;100.00
70254;BME280;57649;42.968;1.608;2024-03-17T01:55:51;97581.22;;;11.12;100.00
70254;BME280;57649;42.968;1.608;2024-03-17T01:58:19;97584.38;;;11.08;100.00
70254;BME280;57649;42.968;1.608;2024-03-17T02:00:45;97578.72;;;11.03;100.00
70254;BME280;57649;42.968;1.608;2024-03-17T02:03:12;97576.72;;;11.05;100.00
70254;BME280;57649;42.968;1.608;2024-03-17T02:05:39;97583.22;;;11.02;100.00
70254;BME280;57649;42.968;1.608;2024-03-17T02:08:05;97580.34;;;10.63;100.00
70254;BME280;57649;42.968;1.608;2024-03-17T02:10:32;97591.78;;;10.38;100.00
70254;BME280;57649;42.968;1.608;2024-03-17T02:12:58;97579.19;;;10.23;100.00
70254;BME280;57649;42.968;1.608;2024-03-17T02:15:24;97576.84;;;10.28;100.00
70254;BME280;57649;42.968;1.608;2024-03-17T02:17:49;97570.47;;;10.20;100.00
70254;BME280;57649;42.968;1.608;2024-03-17T02:20:15;97565.22;;;10.37;100.00
70254;BME280;57649;42.968;1.608;2024-03-17T02:22:41;97563.38;;;10.46;100.00
70254;BME280;57649;42.968;1.608;2024-03-17T02:25:07;97562.91;;;10.50;100.00
70254;BME280;57649;42.968;1.608;2024-03-17T02:27:36;97551.72;;;10.63;100.00
70254;BME280;57649;42.968;1.608;2024-03-17T02:30:03;97562.78;;;10.68;100.00
70254;BME280;57649;42.968;1.608;2024-03-17T02:32:29;97548.53;;;10.59;100.00
70254;BME280;57649;42.968;1.608;2024-03-17T02:34:55;97557.56;;;10.67;100.00
70254;BME280;57649;42.968;1.608;2024-03-17T02:37:21;97552.38;;;10.65;100.00
70254;BME280;57649;42.968;1.608;2024-03-17T02:39:47;97548.97;;;10.38;100.00
70254;BME280;57649;42.968;1.608;2024-03-17T02:42:12;97538.44;;;10.37;100.00
70254;BME280;57649;42.968;1.608;2024-03-17T02:44:38;97537.97;;;10.50;100.00
70254;BME280;57649;42.968;1.608;2024-03-17T02:47:06;97535.47;;;10.48;100.00
70254;BME280;57649;42.968;1.608;2024-03-17T02:49:35;97518.38;;;10.49;100.00
70254;BME280;57649;42.968;1.608;2024-03-17T02:52:08;97512.75;;;10.61;100.00
70254;BME280;57649;42.968;1.608;2024-03-17T02:54:35;97502.19;;;10.67;100.00
70254;BME280;57649;42.968;1.608;2024-03-17T02:57:01;97497.69;;;10.76;100.00
70254;BME280;57649;42.968;1.608;2024-03-17T02:59:27;97494.31;;;10.82;98.65
70254;BME280;57649;42.968;1.608;2024-03-17T03:01:52;97486.28;;;10.82;98.10
70254;BME280;57649;42.968;1.608;2024-03-17T03:04:18;97484.63;;;10.89;96.86
70254;BME280;57649;42.968;1.608;2024-03-17T03:06:43;97478.25;;;10.90;95.98
70254;BME280;57649;42.968;1.608;2024-03-17T03:09:09;97476.25;;;10.92;95.82
70254;BME280;57649;42.968;1.608;2024-03-17T03:11:39;97476.91;;;10.94;96.84
70254;BME280;57649;42.968;1.608;2024-03-17T03:14:05;97475.72;;;10.97;96.43
70254;BME280;57649;42.968;1.608;2024-03-17T03:16:31;97469.88;;;10.93;97.63
70254;BME280;57649;42.968;1.608;2024-03-17T03:18:56;97462.03;;;10.84;98.36
70254;BME280;57649;42.968;1.608;2024-03-17T03:21:22;97466.72;;;10.82;100.00
70254;BME280;57649;42.968;1.608;2024-03-17T03:23:47;97454.81;;;10.84;98.79
70254;BME280;57649;42.968;1.608;2024-03-17T03:26:13;97461.34;;;10.82;99.87
70254;BME280;57649;42.968;1.608;2024-03-17T03:28:38;97468.03;;;10.69;100.00
70254;BME280;57649;42.968;1.608;2024-03-17T03:31:04;97466.88;;;10.64;100.00
70254;BME280;57649;42.968;1.608;2024-03-17T03:33:29;97471.56;;;10.53;100.00
70254;BME280;57649;42.968;1.608;2024-03-17T03:35:55;97481.78;;;10.66;100.00
70254;BME280;57649;42.968;1.608;2024-03-17T03:38:21;97484.13;;;10.77;99.09
70254;BME280;57649;42.968;1.608;2024-03-17T03:40:50;97480.25;;;10.80;96.58
70254;BME280;57649;42.968;1.608;2024-03-17T03:43:16;97482.59;;;10.75;96.25
70254;BME280;57649;42.968;1.608;2024-03-17T03:45:41;97474.41;;;10.68;97.98
70254;BME280;57649;42.968;1.608;2024-03-17T03:48:07;97468.91;;;10.70;98.17
70254;BME280;57649;42.968;1.608;2024-03-17T03:50:40;97484.44;;;10.74;99.30
70254;BME280;57649;42.968;1.608;2024-03-17T03:53:05;97485.97;;;10.69;98.75
70254;BME280;57649;42.968;1.608;2024-03-17T03:55:31;97478.25;;;10.74;97.37
70254;BME280;57649;42.968;1.608;2024-03-17T03:57:56;97476.25;;;10.76;99.64
70254;BME280;57649;42.968;1.608;2024-03-17T04:00:22;97476.44;;;10.66;100.00
70254;BME280;57649;42.968;1.608;2024-03-17T04:02:49;97487.47;;;10.63;100.00
70254;BME280;57649;42.968;1.608;2024-03-17T04:05:15;97476.25;;;10.51;99.58
70254;BME280;57649;42.968;1.608;2024-03-17T04:07:40;97476.25;;;10.51;99.45
70254;BME280;57649;42.968;1.608;2024-03-17T04:10:08;97489.13;;;10.56;98.66
70254;BME280;57649;42.968;1.608;2024-03-17T04:12:34;97479.59;;;10.53;99.06
70254;BME280;57649;42.968;1.608;2024-03-17T04:14:59;97489.13;;;10.48;100.00
70254;BME280;57649;42.968;1.608;2024-03-17T04:17:25;97479.06;;;10.33;100.00
70254;BME280;57649;42.968;1.608;2024-03-17T04:19:52;97484.72;;;10.22;100.00
70254;BME280;57649;42.968;1.608;2024-03-17T04:22:18;97494.53;;;10.13;100.00
70254;BME280;57649;42.968;1.608;2024-03-17T04:24:47;97496.59;;;9.85;100.00
70254;BME280;57649;42.968;1.608;2024-03-17T04:27:13;97509.22;;;10.01;100.00
70254;BME280;57649;42.968;1.608;2024-03-17T04:29:39;97512.66;;;9.85;100.00
70254;BME280;57649;42.968;1.608;2024-03-17T04:32:05;97504.91;;;9.74;100.00
70254;BME280;57649;42.968;1.608;2024-03-17T04:34:31;97508.41;;;9.74;100.00
70254;BME280;57649;42.968;1.608;2024-03-17T04:36:57;97509.03;;;9.60;100.00
70254;BME280;57649;42.968;1.608;2024-03-17T04:39:23;97492.16;;;9.59;100.00
70254;BME280;57649;42.968;1.608;2024-03-17T04:41:49;97490.66;;;9.65;100.00
70254;BME280;57649;42.968;1.608;2024-03-17T04:44:15;97492.50;;;9.64;100.00
70254;BME280;57649;42.968;1.608;2024-03-17T04:46:41;97485.38;;;9.73;100.00
70254;BME280;57649;42.968;1.608;2024-03-17T04:49:06;97478.34;;;9.72;100.00
70254;BME280;57649;42.968;1.608;2024-03-17T04:51:33;97476.53;;;9.73;100.00
70254;BME280;57649;42.968;1.608;2024-03-17T04:53:59;97492.13;;;9.86;100.00
70254;BME280;57649;42.968;1.608;2024-03-17T04:56:24;97481.63;;;10.00;100.00
70254;BME280;57649;42.968;1.608;2024-03-17T04:58:50;97478.44;;;9.97;100.00
70254;BME280;57649;42.968;1.608;2024-03-17T05:01:15;97486.81;;;10.02;100.00
70254;BME280;57649;42.968;1.608;2024-03-17T05:03:41;97504.22;;;10.06;100.00
70254;BME280;57649;42.968;1.608;2024-03-17T05:06:06;97510.50;;;9.89;100.00
70254;BME280;57649;42.968;1.608;2024-03-17T05:08:33;97528.38;;;9.88;100.00
70254;BME280;57649;42.968;1.608;2024-03-17T05:11:03;97522.94;;;9.63;100.00
70254;BME280;57649;42.968;1.608;2024-03-17T05:13:36;97548.91;;;9.53;100.00
70254;BME280;57649;42.968;1.608;2024-03-17T05:16:04;97546.88;;;9.47;100.00
70254;BME280;57649;42.968;1.608;2024-03-17T05:18:29;97554.19;;;9.19;100.00
70254;BME280;57649;42.968;1.608;2024-03-17T05:21:05;97541.84;;;9.18;100.00
70254;BME280;57649;42.968;1.608;2024-03-17T05:23:36;97546.84;;;9.21;100.00
70254;BME280;57649;42.968;1.608;2024-03-17T05:26:04;97551.47;;;9.11;100.00
70254;BME280;57649;42.968;1.608;2024-03-17T05:28:30;97554.13;;;9.29;100.00
70254;BME280;57649;42.968;1.608;2024-03-17T05:30:56;97573.38;;;9.40;100.00
70254;BME280;57649;42.968;1.608;2024-03-17T05:33:23;97556.69;;;9.38;100.00
70254;BME280;57649;42.968;1.608;2024-03-17T05:38:19;97564.69;;;9.38;100.00
70254;BME280;57649;42.968;1.608;2024-03-17T05:41:01;97568.19;;;9.39;100.00
70254;BME280;57649;42.968;1.608;2024-03-17T05:43:31;97571.88;;;9.38;100.00
70254;BME280;57649;42.968;1.608;2024-03-17T05:45:59;97576.00;;;9.32;100.00
70254;BME280;57649;42.968;1.608;2024-03-17T05:48:25;97598.13;;;9.42;100.00
70254;BME280;57649;42.968;1.608;2024-03-17T05:50:50;97595.06;;;9.37;100.00
70254;BME280;57649;42.968;1.608;2024-03-17T05:53:20;97587.72;;;9.39;100.00
70254;BME280;57649;42.968;1.608;2024-03-17T05:55:46;97600.41;;;9.37;100.00
70254;BME280;57649;42.968;1.608;2024-03-17T05:58:12;97593.41;;;9.36;100.00
70254;BME280;57649;42.968;1.608;2024-03-17T06:00:39;97597.81;;;9.46;100.00
70254;BME280;57649;42.968;1.608;2024-03-17T06:03:05;97599.19;;;9.50;100.00
70254;BME280;57649;42.968;1.608;2024-03-17T06:05:34;97599.69;;;9.53;100.00
70254;BME280;57649;42.968;1.608;2024-03-17T06:08:01;97598.78;;;9.44;100.00
70254;BME280;57649;42.968;1.608;2024-03-17T06:10:31;97602.69;;;9.50;100.00
70254;BME280;57649;42.968;1.608;2024-03-17T06:12:57;97607.34;;;9.48;100.00
70254;BME280;57649;42.968;1.608;2024-03-17T06:15:23;97613.47;;;9.40;100.00
70254;BME280;57649;42.968;1.608;2024-03-17T06:17:50;97613.22;;;9.52;100.00
70254;BME280;57649;42.968;1.608;2024-03-17T06:20:24;97623.78;;;9.35;100.00
70254;BME280;57649;42.968;1.608;2024-03-17T06:22:52;97620.81;;;9.20;100.00
70254;BME280;57649;42.968;1.608;2024-03-17T06:25:18;97626.25;;;9.11;100.00
70254;BME280;57649;42.968;1.608;2024-03-17T06:27:43;97630.81;;;9.00;100.00
70254;BME280;57649;42.968;1.608;2024-03-17T06:30:13;97634.72;;;9.06;100.00
70254;BME280;57649;42.968;1.608;2024-03-17T06:32:45;97632.97;;;8.97;100.00
70254;BME280;57649;42.968;1.608;2024-03-17T06:35:14;97636.16;;;9.00;100.00
70254;BME280;57649;42.968;1.608;2024-03-17T06:37:52;97627.63;;;9.15;100.00
70254;BME280;57649;42.968;1.608;2024-03-17T06:40:18;97616.63;;;9.18;100.00
70254;BME280;57649;42.968;1.608;2024-03-17T06:42:43;97624.81;;;9.16;100.00
70254;BME280;57649;42.968;1.608;2024-03-17T06:45:09;97617.38;;;9.28;100.00
70254;BME280;57649;42.968;1.608;2024-03-17T06:47:37;97618.97;;;9.21;100.00
70254;BME280;57649;42.968;1.608;2024-03-17T06:50:04;97611.44;;;9.16;100.00
70254;BME280;57649;42.968;1.608;2024-03-17T06:52:29;97613.78;;;9.19;100.00
70254;BME280;57649;42.968;1.608;2024-03-17T06:54:56;97618.78;;;9.14;100.00
70254;BME280;57649;42.968;1.608;2024-03-17T06:57:23;97607.72;;;9.09;100.00
70254;BME280;57649;42.968;1.608;2024-03-17T06:59:48;97620.44;;;9.15;100.00
70254;BME280;57649;42.968;1.608;2024-03-17T07:02:14;97615.72;;;9.27;100.00
70254;BME280;57649;42.968;1.608;2024-03-17T07:04:43;97598.81;;;9.27;100.00
70254;BME280;57649;42.968;1.608;2024-03-17T07:07:08;97588.00;;;9.28;100.00
70254;BME280;57649;42.968;1.608;2024-03-17T07:09:34;97568.16;;;9.31;100.00
70254;BME280;57649;42.968;1.608;2024-03-17T07:11:59;97573.91;;;9.44;100.00
70254;BME280;57649;42.968;1.608;2024-03-17T07:14:24;97565.94;;;9.52;100.00
70254;BME280;57649;42.968;1.608;2024-03-17T07:16:51;97570.53;;;9.60;100.00
70254;BME280;57649;42.968;1.608;2024-03-17T07:19:17;97587.00;;;9.81;100.00
70254;BME280;57649;42.968;1.608;2024-03-17T07:21:42;97573.63;;;9.81;100.00
70254;BME280;57649;42.968;1.608;2024-03-17T07:24:07;97570.66;;;9.85;100.00
70254;BME280;57649;42.968;1.608;2024-03-17T07:26:33;97569.84;;;9.92;100.00
70254;BME280;57649;42.968;1.608;2024-03-17T07:28:59;97571.03;;;9.98;100.00
70254;BME280;57649;42.968;1.608;2024-03-17T07:31:25;97582.78;;;10.05;99.65
70254;BME280;57649;42.968;1.608;2024-03-17T07:33:51;97580.47;;;10.10;98.84
70254;BME280;57649;42.968;1.608;2024-03-17T07:36:16;97579.28;;;10.13;99.69
70254;BME280;57649;42.968;1.608;2024-03-17T07:38:41;97581.50;;;10.17;100.00
70254;BME280;57649;42.968;1.608;2024-03-17T07:41:08;97577.56;;;10.03;100.00
70254;BME280;57649;42.968;1.608;2024-03-17T07:43:37;97581.94;;;10.05;100.00
70254;BME280;57649;42.968;1.608;2024-03-17T07:46:07;97582.66;;;10.15;100.00
70254;BME280;57649;42.968;1.608;2024-03-17T07:48:35;97591.53;;;10.24;99.23
70254;BME280;57649;42.968;1.608;2024-03-17T07:53:32;97598.69;;;10.49;96.16
70254;BME280;57649;42.968;1.608;2024-03-17T07:56:04;97599.19;;;10.53;97.65
70254;BME280;57649;42.968;1.608;2024-03-17T07:58:31;97600.56;;;10.65;93.98
70254;BME280;57649;42.968;1.608;2024-03-17T08:01:08;97603.81;;;10.77;94.18
70254;BME280;57649;42.968;1.608;2024-03-17T08:03:38;97600.81;;;10.88;91.36
70254;BME280;57649;42.968;1.608;2024-03-17T08:06:05;97609.84;;;10.95;92.53
70254;BME280;57649;42.968;1.608;2024-03-17T08:08:31;97599.81;;;11.14;90.04
70254;BME280;57649;42.968;1.608;2024-03-17T08:10:58;97605.84;;;11.32;87.72
70254;BME280;57649;42.968;1.608;2024-03-17T08:13:23;97597.13;;;11.47;86.91
70254;BME280;57649;42.968;1.608;2024-03-17T08:15:57;97602.47;;;11.63;86.18
70254;BME280;57649;42.968;1.608;2024-03-17T08:18:23;97608.16;;;11.77;84.29
70254;BME280;57649;42.968;1.608;2024-03-17T08:20:49;97606.47;;;11.84;84.09
70254;BME280;57649;42.968;1.608;2024-03-17T08:23:14;97625.22;;;11.92;83.83
70254;BME280;57649;42.968;1.608;2024-03-17T08:25:40;97613.84;;;11.98;84.37
70254;BME280;57649;42.968;1.608;2024-03-17T08:28:06;97613.31;;;12.03;83.43
70254;BME280;57649;42.968;1.608;2024-03-17T08:30:32;97614.50;;;12.00;86.65
70254;BME280;57649;42.968;1.608;2024-03-17T08:32:58;97619.69;;;12.02;85.80
70254;BME280;57649;42.968;1.608;2024-03-17T08:35:24;97636.53;;;12.35;83.10
70254;BME280;57649;42.968;1.608;2024-03-17T08:37:50;97644.03;;;12.48;81.14
70254;BME280;57649;42.968;1.608;2024-03-17T08:40:17;97630.59;;;12.79;78.93
70254;BME280;57649;42.968;1.608;2024-03-17T08:42:42;97634.50;;;13.00;80.62
70254;BME280;57649;42.968;1.608;2024-03-17T08:45:10;97635.25;;;13.40;77.50
70254;BME280;57649;42.968;1.608;2024-03-17T08:47:35;97632.66;;;13.84;73.85
70254;BME280;57649;42.968;1.608;2024-03-17T08:50:01;97617.84;;;14.33;72.64
70254;BME280;57649;42.968;1.608;2024-03-17T08:52:29;97620.22;;;14.88;71.74
70254;BME280;57649;42.968;1.608;2024-03-17T08:54:57;97607.66;;;15.38;70.51
70254;BME280;57649;42.968;1.608;2024-03-17T08:57:22;97608.91;;;15.85;69.11
70254;BME280;57649;42.968;1.608;2024-03-17T08:59:48;97620.91;;;16.46;66.07
70254;BME280;57649;42.968;1.608;2024-03-17T09:02:14;97602.81;;;16.88;64.12
70254;BME280;57649;42.968;1.608;2024-03-17T09:04:42;97604.16;;;17.32;63.43
70254;BME280;57649;42.968;1.608;2024-03-17T09:07:07;97615.00;;;17.65;64.33
70254;BME280;57649;42.968;1.608;2024-03-17T09:09:33;97608.53;;;17.93;60.38
70254;BME280;57649;42.968;1.608;2024-03-17T09:11:58;97601.66;;;18.11;59.18
70254;BME280;57649;42.968;1.608;2024-03-17T09:14:24;97603.03;;;18.46;59.44
70254;BME280;57649;42.968;1.608;2024-03-17T09:16:49;97604.41;;;18.69;59.61
70254;BME280;57649;42.968;1.608;2024-03-17T09:19:15;97610.56;;;18.96;58.19
70254;BME280;57649;42.968;1.608;2024-03-17T09:21:40;97606.53;;;19.12;55.96
70254;BME280;57649;42.968;1.608;2024-03-17T09:24:06;97618.72;;;19.28;53.96
70254;BME280;57649;42.968;1.608;2024-03-17T09:26:36;97613.50;;;19.58;53.64
70254;BME280;57649;42.968;1.608;2024-03-17T09:29:04;97613.38;;;19.78;54.18
70254;BME280;57649;42.968;1.608;2024-03-17T09:31:30;97614.41;;;19.77;51.05
70254;BME280;57649;42.968;1.608;2024-03-17T09:33:59;97610.41;;;20.05;49.81
70254;BME280;57649;42.968;1.608;2024-03-17T09:36:24;97612.53;;;20.22;48.89
70254;BME280;57649;42.968;1.608;2024-03-17T09:38:49;97605.00;;;20.42;49.39
70254;BME280;57649;42.968;1.608;2024-03-17T09:41:20;97595.59;;;20.45;47.79
70254;BME280;57649;42.968;1.608;2024-03-17T09:43:47;97601.06;;;20.93;49.36
70254;BME280;57649;42.968;1.608;2024-03-17T09:46:14;97598.31;;;21.12;49.64
70254;BME280;57649;42.968;1.608;2024-03-17T09:48:40;97581.13;;;21.11;46.87
70254;BME280;57649;42.968;1.608;2024-03-17T09:51:05;97586.06;;;21.33;48.70
70254;BME280;57649;42.968;1.608;2024-03-17T09:53:35;97585.25;;;21.32;49.44
70254;BME280;57649;42.968;1.608;2024-03-17T09:56:03;97584.44;;;21.02;48.71
70254;BME280;57649;42.968;1.608;2024-03-17T09:58:31;97577.16;;;21.14;46.44
70254;BME280;57649;42.968;1.608;2024-03-17T10:00:56;97573.25;;;21.22;44.71
70254;BME280;57649;42.968;1.608;2024-03-17T10:06:17;97586.38;;;21.55;44.66
70254;BME280;57649;42.968;1.608;2024-03-17T10:08:56;97594.00;;;21.77;46.42
70254;BME280;57649;42.968;1.608;2024-03-17T10:11:23;97601.81;;;22.08;43.85
70254;BME280;57649;42.968;1.608;2024-03-17T10:14:09;97578.00;;;21.92;45.41
70254;BME280;57649;42.968;1.608;2024-03-17T10:16:37;97589.75;;;22.28;43.37
70254;BME280;57649;42.968;1.608;2024-03-17T10:19:09;97572.78;;;22.49;42.04
70254;BME280;57649;42.968;1.608;2024-03-17T10:21:37;97567.31;;;22.49;42.48
70254;BME280;57649;42.968;1.608;2024-03-17T10:24:22;97573.53;;;22.33;41.48
70254;BME280;57649;42.968;1.608;2024-03-17T10:26:52;97567.28;;;22.61;40.63
70254;BME280;57649;42.968;1.608;2024-03-17T10:31:56;97564.59;;;22.38;40.33
70254;BME280;57649;42.968;1.608;2024-03-17T10:34:22;97558.34;;;22.37;40.69
70254;BME280;57649;42.968;1.608;2024-03-17T10:37:11;97558.09;;;22.03;41.24
70254;BME280;57649;42.968;1.608;2024-03-17T10:39:40;97558.81;;;22.34;40.83
70254;BME280;57649;42.968;1.608;2024-03-17T10:42:07;97557.41;;;22.32;40.82
70254;BME280;57649;42.968;1.608;2024-03-17T10:44:40;97558.44;;;22.30;40.90
70254;BME280;57649;42.968;1.608;2024-03-17T10:47:17;97554.16;;;22.23;41.34
70254;BME280;57649;42.968;1.608;2024-03-17T10:49:46;97543.28;;;22.35;42.73
70254;BME280;57649;42.968;1.608;2024-03-17T10:52:18;97541.22;;;22.54;41.79
70254;BME280;57649;42.968;1.608;2024-03-17T10:54:48;97542.28;;;22.53;40.53
70254;BME280;57649;42.968;1.608;2024-03-17T10:59:59;97539.56;;;22.81;39.58
70254;BME280;57649;42.968;1.608;2024-03-17T11:02:25;97549.00;;;23.02;39.48
70254;BME280;57649;42.968;1.608;2024-03-17T11:04:58;97543.91;;;22.94;40.93
70254;BME280;57649;42.968;1.608;2024-03-17T11:07:24;97556.16;;;22.92;37.73
70254;BME280;57649;42.968;1.608;2024-03-17T11:09:53;97548.97;;;22.74;37.40
70254;BME280;57649;42.968;1.608;2024-03-17T11:12:56;97555.53;;;22.61;39.37
70254;BME280;57649;42.968;1.608;2024-03-17T11:20:34;97555.09;;;22.52;35.81
70254;BME280;57649;42.968;1.608;2024-03-17T11:23:00;97556.09;;;22.75;37.40
70254;BME280;57649;42.968;1.608;2024-03-17T11:27:58;97569.13;;;22.84;38.08
70254;BME280;57649;42.968;1.608;2024-03-17T11:41:47;97556.59;;;23.29;39.28
70254;BME280;57649;42.968;1.608;2024-03-17T11:44:24;97560.13;;;23.30;38.33
70254;BME280;57649;42.968;1.608;2024-03-17T11:49:33;97540.88;;;23.53;39.20
70254;BME280;57649;42.968;1.608;2024-03-17T11:52:02;97524.81;;;23.40;36.58
70254;BME280;57649;42.968;1.608;2024-03-17T11:54:29;97526.72;;;23.56;36.74
70254;BME280;57649;42.968;1.608;2024-03-17T11:56:59;97524.31;;;23.43;34.07
70254;BME280;57649;42.968;1.608;2024-03-17T11:59:25;97522.31;;;23.38;33.25
70254;BME280;57649;42.968;1.608;2024-03-17T12:01:51;97531.66;;;23.42;32.13
70254;BME280;57649;42.968;1.608;2024-03-17T12:04:19;97528.25;;;23.18;32.45
70254;BME280;57649;42.968;1.608;2024-03-17T12:06:53;97529.25;;;23.12;33.76
70254;BME280;57649;42.968;1.608;2024-03-17T12:09:30;97530.09;;;23.30;34.68
70254;BME280;57649;42.968;1.608;2024-03-17T12:12:05;97524.41;;;23.02;34.44
70254;BME280;57649;42.968;1.608;2024-03-17T12:14:32;97520.25;;;23.45;36.82
70254;BME280;57649;42.968;1.608;2024-03-17T12:17:03;97520.00;;;23.47;35.68
70254;BME280;57649;42.968;1.608;2024-03-17T12:19:29;97519.84;;;23.37;37.99
70254;BME280;57649;42.968;1.608;2024-03-17T12:21:57;97497.50;;;23.23;39.47
70254;BME280;57649;42.968;1.608;2024-03-17T12:24:25;97508.09;;;22.91;37.86
70254;BME280;57649;42.968;1.608;2024-03-17T12:26:52;97518.31;;;22.83;39.01
70254;BME280;57649;42.968;1.608;2024-03-17T12:29:36;97515.03;;;22.98;37.53
70254;BME280;57649;42.968;1.608;2024-03-17T12:32:04;97513.41;;;22.97;37.25
70254;BME280;57649;42.968;1.608;2024-03-17T12:34:34;97501.47;;;23.15;37.81
70254;BME280;57649;42.968;1.608;2024-03-17T12:37:00;97507.88;;;22.80;37.61
70254;BME280;57649;42.968;1.608;2024-03-17T12:39:33;97497.88;;;23.15;37.49
70254;BME280;57649;42.968;1.608;2024-03-17T12:42:05;97497.66;;;23.16;39.40
70254;BME280;57649;42.968;1.608;2024-03-17T12:44:32;97492.19;;;23.16;37.80
70254;BME280;57649;42.968;1.608;2024-03-17T12:46:59;97486.63;;;23.11;36.96
70254;BME280;57649;42.968;1.608;2024-03-17T12:49:30;97495.75;;;23.34;38.04
70254;BME280;57649;42.968;1.608;2024-03-17T12:51:56;97478.38;;;22.77;36.81
70254;BME280;57649;42.968;1.608;2024-03-17T12:54:26;97479.38;;;22.88;35.67
70254;BME280;57649;42.968;1.608;2024-03-17T12:57:06;97478.16;;;22.96;37.61
70254;BME280;57649;42.968;1.608;2024-03-17T12:59:51;97462.88;;;22.66;35.02
70254;BME280;57649;42.968;1.608;2024-03-17T13:02:55;97451.28;;;22.59;37.70
70254;BME280;57649;42.968;1.608;2024-03-17T13:05:21;97443.22;;;22.64;36.66
70254;BME280;57649;42.968;1.608;2024-03-17T13:07:48;97444.03;;;22.36;37.62
70254;BME280;57649;42.968;1.608;2024-03-17T13:10:18;97436.97;;;22.52;37.37
70254;BME280;57649;42.968;1.608;2024-03-17T13:12:45;97432.09;;;22.54;38.23
70254;BME280;57649;42.968;1.608;2024-03-17T13:15:17;97422.06;;;22.42;39.99
70254;BME280;57649;42.968;1.608;2024-03-17T13:17:46;97420.59;;;22.52;38.97
70254;BME280;57649;42.968;1.608;2024-03-17T13:20:15;97420.06;;;22.66;38.56
70254;BME280;57649;42.968;1.608;2024-03-17T13:22:45;97418.91;;;22.79;38.58
70254;BME280;57649;42.968;1.608;2024-03-17T13:25:18;97418.25;;;22.89;37.60
70254;BME280;57649;42.968;1.608;2024-03-17T13:27:44;97419.81;;;22.85;38.47
70254;BME280;57649;42.968;1.608;2024-03-17T13:30:14;97415.28;;;22.74;38.27
70254;BME280;57649;42.968;1.608;2024-03-17T13:32:41;97407.75;;;22.64;37.23
70254;BME280;57649;42.968;1.608;2024-03-17T13:35:18;97402.19;;;22.59;37.34